sensor_id;sensor_type;location;lat;lon;timestamp;temperature;humidity
11615;DHT22;5863;52.832;4.758;2024-03-25T00:00:47;7.70;99.90
11615;DHT22;5863;52.832;4.758;2024-03-25T00:03:14;7.70;99.90
11615;DHT22;5863;52.832;4.758;2024-03-25T00:05:40;7.70;99.90
11615;DHT22;5863;52.832;4.758;2024-03-25T00:08:07;7.70;99.90
11615;DHT22;5863;52.832;4.758;2024-03-25T00:10:34;7.70;99.90
11615;DHT22;5863;52.832;4.758;2024-03-25T00:13:02;7.60;99.90
11615;DHT22;5863;52.832;4.758;2024-03-25T00:15:28;7.60;99.90
11615;DHT22;5863;52.832;4.758;2024-03-25T00:17:56;7.50;99.90
11615;DHT22;5863;52.832;4.758;2024-03-25T00:20:21;7.50;99.90
11615;DHT22;5863;52.832;4.758;2024-03-25T00:22:49;7.50;99.90
11615;DHT22;5863;52.832;4.758;2024-03-25T00:25:15;7.50;99.90
11615;DHT22;5863;52.832;4.758;2024-03-25T00:27:44;7.50;99.90
11615;DHT22;5863;52.832;4.758;2024-03-25T00:30:11;7.50;99.90
11615;DHT22;5863;52.832;4.758;2024-03-25T00:32:39;7.50;99.90
11615;DHT22;5863;52.832;4.758;2024-03-25T00:35:06;7.50;99.90
11615;DHT22;5863;52.832;4.758;2024-03-25T00:37:33;7.40;99.90
11615;DHT22;5863;52.832;4.758;2024-03-25T00:39:59;7.40;99.90
11615;DHT22;5863;52.832;4.758;2024-03-25T00:42:26;7.50;99.90
11615;DHT22;5863;52.832;4.758;2024-03-25T00:44:53;7.50;99.90
11615;DHT22;5863;52.832;4.758;2024-03-25T00:47:20;7.50;99.90
11615;DHT22;5863;52.832;4.758;2024-03-25T00:49:46;7.40;99.90
11615;DHT22;5863;52.832;4.758;2024-03-25T00:52:13;7.40;99.90
11615;DHT22;5863;52.832;4.758;2024-03-25T00:54:38;7.30;99.90
11615;DHT22;5863;52.832;4.758;2024-03-25T00:57:05;7.20;99.90
11615;DHT22;5863;52.832;4.758;2024-03-25T00:59:31;7.30;99.90
11615;DHT22;5863;52.832;4.758;2024-03-25T01:01:59;7.30;99.90
11615;DHT22;5863;52.832;4.758;2024-03-25T01:04:25;7.30;99.90
11615;DHT22;5863;52.832;4.758;2024-03-25T01:06:52;7.30;99.90
11615;DHT22;5863;52.832;4.758;2024-03-25T01:09:18;7.40;99.90
11615;DHT22;5863;52.832;4.758;2024-03-25T01:11:47;7.40;99.90
11615;DHT22;5863;52.832;4.758;2024-03-25T01:14:13;7.60;99.90
11615;DHT22;5863;52.832;4.758;2024-03-25T01:16:40;7.60;99.90
11615;DHT22;5863;52.832;4.758;2024-03-25T01:19:08;7.70;99.90
11615;DHT22;5863;52.832;4.758;2024-03-25T01:21:35;7.70;99.90
11615;DHT22;5863;52.832;4.758;2024-03-25T01:24:01;7.60;99.90
11615;DHT22;5863;52.832;4.758;2024-03-25T01:26:28;7.60;99.90
11615;DHT22;5863;52.832;4.758;2024-03-25T01:28:54;7.50;99.90
11615;DHT22;5863;52.832;4.758;2024-03-25T01:31:21;7.50;99.90
11615;DHT22;5863;52.832;4.758;2024-03-25T01:33:47;7.30;99.90
11615;DHT22;5863;52.832;4.758;2024-03-25T01:36:15;7.20;99.90
11615;DHT22;5863;52.832;4.758;2024-03-25T01:38:42;7.10;99.90
11615;DHT22;5863;52.832;4.758;2024-03-25T01:41:10;7.00;99.90
11615;DHT22;5863;52.832;4.758;2024-03-25T01:43:36;7.00;99.90
11615;DHT22;5863;52.832;4.758;2024-03-25T01:46:04;6.90;99.90
11615;DHT22;5863;52.832;4.758;2024-03-25T01:48:31;6.90;99.90
11615;DHT22;5863;52.832;4.758;2024-03-25T01:50:58;6.90;99.90
11615;DHT22;5863;52.832;4.758;2024-03-25T01:53:26;6.80;99.90
11615;DHT22;5863;52.832;4.758;2024-03-25T01:55:55;6.80;99.90
11615;DHT22;5863;52.832;4.758;2024-03-25T01:58:23;6.70;99.90
11615;DHT22;5863;52.832;4.758;2024-03-25T02:00:51;6.60;99.90
11615;DHT22;5863;52.832;4.758;2024-03-25T02:03:18;6.60;99.90
11615;DHT22;5863;52.832;4.758;2024-03-25T02:05:45;6.60;99.90
11615;DHT22;5863;52.832;4.758;2024-03-25T02:08:11;6.50;99.90
11615;DHT22;5863;52.832;4.758;2024-03-25T02:10:41;6.50;99.90
11615;DHT22;5863;52.832;4.758;2024-03-25T02:13:07;6.50;99.90
11615;DHT22;5863;52.832;4.758;2024-03-25T02:15:35;6.50;99.90
11615;DHT22;5863;52.832;4.758;2024-03-25T02:18:01;6.40;99.90
11615;DHT22;5863;52.832;4.758;2024-03-25T02:20:28;6.40;99.90
11615;DHT22;5863;52.832;4.758;2024-03-25T02:22:54;6.30;99.90
11615;DHT22;5863;52.832;4.758;2024-03-25T02:25:22;6.30;99.90
11615;DHT22;5863;52.832;4.758;2024-03-25T02:27:49;6.30;99.90
11615;DHT22;5863;52.832;4.758;2024-03-25T02:30:16;6.30;99.90
11615;DHT22;5863;52.832;4.758;2024-03-25T02:32:42;6.30;99.90
11615;DHT22;5863;52.832;4.758;2024-03-25T02:35:17;6.30;99.90
11615;DHT22;5863;52.832;4.758;2024-03-25T02:37:44;6.30;99.90
11615;DHT22;5863;52.832;4.758;2024-03-25T02:40:10;6.30;99.90
11615;DHT22;5863;52.832;4.758;2024-03-25T02:42:38;6.40;99.90
11615;DHT22;5863;52.832;4.758;2024-03-25T02:45:08;6.40;99.90
11615;DHT22;5863;52.832;4.758;2024-03-25T02:47:35;6.50;99.90
11615;DHT22;5863;52.832;4.758;2024-03-25T02:50:01;6.50;99.90
11615;DHT22;5863;52.832;4.758;2024-03-25T02:52:28;6.60;99.90
11615;DHT22;5863;52.832;4.758;2024-03-25T02:54:54;6.70;99.90
11615;DHT22;5863;52.832;4.758;2024-03-25T02:57:21;6.70;99.90
11615;DHT22;5863;52.832;4.758;2024-03-25T02:59:47;6.70;99.90
11615;DHT22;5863;52.832;4.758;2024-03-25T03:02:15;6.70;99.90
11615;DHT22;5863;52.832;4.758;2024-03-25T03:04:41;6.70;99.90
11615;DHT22;5863;52.832;4.758;2024-03-25T03:07:08;6.70;99.90
11615;DHT22;5863;52.832;4.758;2024-03-25T03:09:34;6.70;99.90
11615;DHT22;5863;52.832;4.758;2024-03-25T03:12:01;6.70;99.90
11615;DHT22;5863;52.832;4.758;2024-03-25T03:14:27;6.70;99.90
11615;DHT22;5863;52.832;4.758;2024-03-25T03:16:54;6.60;99.90
11615;DHT22;5863;52.832;4.758;2024-03-25T03:19:25;6.60;99.90
11615;DHT22;5863;52.832;4.758;2024-03-25T03:21:52;6.60;99.90
11615;DHT22;5863;52.832;4.758;2024-03-25T03:24:17;6.50;99.90
11615;DHT22;5863;52.832;4.758;2024-03-25T03:26:45;6.50;99.90
11615;DHT22;5863;52.832;4.758;2024-03-25T03:29:11;6.50;99.90
11615;DHT22;5863;52.832;4.758;2024-03-25T03:31:38;6.50;99.90
11615;DHT22;5863;52.832;4.758;2024-03-25T03:34:03;6.50;99.90
11615;DHT22;5863;52.832;4.758;2024-03-25T03:36:32;6.50;99.90
11615;DHT22;5863;52.832;4.758;2024-03-25T03:38:58;6.50;99.90
11615;DHT22;5863;52.832;4.758;2024-03-25T03:41:25;6.50;99.90
11615;DHT22;5863;52.832;4.758;2024-03-25T03:43:50;6.40;99.90
11615;DHT22;5863;52.832;4.758;2024-03-25T03:46:17;6.30;99.90
11615;DHT22;5863;52.832;4.758;2024-03-25T03:48:43;6.30;99.90
11615;DHT22;5863;52.832;4.758;2024-03-25T03:51:10;6.30;99.90
11615;DHT22;5863;52.832;4.758;2024-03-25T03:53:38;6.20;99.90
11615;DHT22;5863;52.832;4.758;2024-03-25T03:56:05;6.20;99.90
11615;DHT22;5863;52.832;4.758;2024-03-25T03:58:31;6.10;99.90
11615;DHT22;5863;52.832;4.758;2024-03-25T04:00:58;6.00;99.90
11615;DHT22;5863;52.832;4.758;2024-03-25T04:03:24;6.00;99.90
11615;DHT22;5863;52.832;4.758;2024-03-25T04:05:51;6.00;99.90
11615;DHT22;5863;52.832;4.758;2024-03-25T04:08:17;6.00;99.90
11615;DHT22;5863;52.832;4.758;2024-03-25T04:10:46;6.00;99.90
11615;DHT22;5863;52.832;4.758;2024-03-25T04:13:12;5.90;99.90
11615;DHT22;5863;52.832;4.758;2024-03-25T04:15:39;5.90;99.90
11615;DHT22;5863;52.832;4.758;2024-03-25T04:18:06;5.90;99.90
11615;DHT22;5863;52.832;4.758;2024-03-25T04:20:36;5.90;99.90
11615;DHT22;5863;52.832;4.758;2024-03-25T04:23:02;5.90;99.90
11615;DHT22;5863;52.832;4.758;2024-03-25T04:25:30;5.80;99.90
11615;DHT22;5863;52.832;4.758;2024-03-25T04:27:58;5.80;99.90
11615;DHT22;5863;52.832;4.758;2024-03-25T04:30:25;5.70;99.90
11615;DHT22;5863;52.832;4.758;2024-03-25T04:32:51;5.70;99.90
11615;DHT22;5863;52.832;4.758;2024-03-25T04:35:18;5.70;99.90
11615;DHT22;5863;52.832;4.758;2024-03-25T04:37:44;5.70;99.90
11615;DHT22;5863;52.832;4.758;2024-03-25T04:40:11;5.60;99.90
11615;DHT22;5863;52.832;4.758;2024-03-25T04:42:37;5.60;99.90
11615;DHT22;5863;52.832;4.758;2024-03-25T04:45:05;5.60;99.90
11615;DHT22;5863;52.832;4.758;2024-03-25T04:47:31;5.50;99.90
11615;DHT22;5863;52.832;4.758;2024-03-25T04:49:57;5.50;99.90
11615;DHT22;5863;52.832;4.758;2024-03-25T04:52:23;5.50;99.90
11615;DHT22;5863;52.832;4.758;2024-03-25T04:54:49;5.50;99.90
11615;DHT22;5863;52.832;4.758;2024-03-25T04:57:15;5.40;99.90
11615;DHT22;5863;52.832;4.758;2024-03-25T04:59:41;5.40;99.90
11615;DHT22;5863;52.832;4.758;2024-03-25T05:02:08;5.40;99.90
11615;DHT22;5863;52.832;4.758;2024-03-25T05:04:34;5.40;99.90
11615;DHT22;5863;52.832;4.758;2024-03-25T05:07:00;5.40;99.90
11615;DHT22;5863;52.832;4.758;2024-03-25T05:09:27;5.40;99.90
11615;DHT22;5863;52.832;4.758;2024-03-25T05:11:53;5.50;99.90
11615;DHT22;5863;52.832;4.758;2024-03-25T05:14:18;5.50;99.90
11615;DHT22;5863;52.832;4.758;2024-03-25T05:16:44;5.60;99.90
11615;DHT22;5863;52.832;4.758;2024-03-25T05:19:12;5.60;99.90
11615;DHT22;5863;52.832;4.758;2024-03-25T05:21:38;5.70;99.90
11615;DHT22;5863;52.832;4.758;2024-03-25T05:24:04;5.80;99.90
11615;DHT22;5863;52.832;4.758;2024-03-25T05:26:30;5.90;99.90
11615;DHT22;5863;52.832;4.758;2024-03-25T05:28:56;5.90;99.90
11615;DHT22;5863;52.832;4.758;2024-03-25T05:31:23;5.90;99.90
11615;DHT22;5863;52.832;4.758;2024-03-25T05:33:49;6.00;99.90
11615;DHT22;5863;52.832;4.758;2024-03-25T05:36:17;6.00;99.90
11615;DHT22;5863;52.832;4.758;2024-03-25T05:38:43;6.00;99.90
11615;DHT22;5863;52.832;4.758;2024-03-25T05:41:09;6.00;99.90
11615;DHT22;5863;52.832;4.758;2024-03-25T05:43:34;6.00;99.90
11615;DHT22;5863;52.832;4.758;2024-03-25T05:46:00;6.10;99.90
11615;DHT22;5863;52.832;4.758;2024-03-25T05:48:27;6.10;99.90
11615;DHT22;5863;52.832;4.758;2024-03-25T05:51:00;6.20;99.90
11615;DHT22;5863;52.832;4.758;2024-03-25T05:53:27;6.20;99.90
11615;DHT22;5863;52.832;4.758;2024-03-25T05:55:54;6.30;99.90
11615;DHT22;5863;52.832;4.758;2024-03-25T05:58:19;6.50;99.90
11615;DHT22;5863;52.832;4.758;2024-03-25T06:00:47;6.60;99.90
11615;DHT22;5863;52.832;4.758;2024-03-25T06:03:13;6.60;99.90
11615;DHT22;5863;52.832;4.758;2024-03-25T06:05:39;6.70;99.90
11615;DHT22;5863;52.832;4.758;2024-03-25T06:08:06;6.70;99.90
11615;DHT22;5863;52.832;4.758;2024-03-25T06:10:36;6.70;99.90
11615;DHT22;5863;52.832;4.758;2024-03-25T06:13:03;6.70;99.90
11615;DHT22;5863;52.832;4.758;2024-03-25T06:15:29;6.80;99.90
11615;DHT22;5863;52.832;4.758;2024-03-25T06:17:55;6.80;99.90
11615;DHT22;5863;52.832;4.758;2024-03-25T06:20:21;6.90;99.90
11615;DHT22;5863;52.832;4.758;2024-03-25T06:22:46;7.00;99.90
11615;DHT22;5863;52.832;4.758;2024-03-25T06:25:12;7.20;99.90
11615;DHT22;5863;52.832;4.758;2024-03-25T06:27:40;7.50;99.90
11615;DHT22;5863;52.832;4.758;2024-03-25T06:30:07;7.80;99.90
11615;DHT22;5863;52.832;4.758;2024-03-25T06:32:51;8.10;99.90
11615;DHT22;5863;52.832;4.758;2024-03-25T06:35:35;8.30;99.90
11615;DHT22;5863;52.832;4.758;2024-03-25T06:38:01;8.60;99.90
11615;DHT22;5863;52.832;4.758;2024-03-25T06:40:27;8.70;99.90
11615;DHT22;5863;52.832;4.758;2024-03-25T06:42:54;8.70;99.90
11615;DHT22;5863;52.832;4.758;2024-03-25T06:45:20;8.70;99.90
11615;DHT22;5863;52.832;4.758;2024-03-25T06:47:46;8.70;99.90
11615;DHT22;5863;52.832;4.758;2024-03-25T06:50:12;8.70;99.90
11615;DHT22;5863;52.832;4.758;2024-03-25T06:52:38;8.80;99.90
11615;DHT22;5863;52.832;4.758;2024-03-25T06:55:05;9.00;99.90
11615;DHT22;5863;52.832;4.758;2024-03-25T06:57:31;9.30;99.90
11615;DHT22;5863;52.832;4.758;2024-03-25T06:59:58;9.50;99.90
11615;DHT22;5863;52.832;4.758;2024-03-25T07:02:24;9.60;99.90
11615;DHT22;5863;52.832;4.758;2024-03-25T07:04:50;9.50;99.90
11615;DHT22;5863;52.832;4.758;2024-03-25T07:07:16;9.40;99.90
11615;DHT22;5863;52.832;4.758;2024-03-25T07:09:42;9.30;99.90
11615;DHT22;5863;52.832;4.758;2024-03-25T07:12:08;9.10;99.90
11615;DHT22;5863;52.832;4.758;2024-03-25T07:14:34;9.00;99.90
11615;DHT22;5863;52.832;4.758;2024-03-25T07:17:01;8.90;99.90
11615;DHT22;5863;52.832;4.758;2024-03-25T07:19:27;8.90;99.90
11615;DHT22;5863;52.832;4.758;2024-03-25T07:21:53;9.00;99.90
11615;DHT22;5863;52.832;4.758;2024-03-25T07:24:19;9.00;99.90
11615;DHT22;5863;52.832;4.758;2024-03-25T07:26:45;9.20;99.90
11615;DHT22;5863;52.832;4.758;2024-03-25T07:29:11;9.20;99.90
11615;DHT22;5863;52.832;4.758;2024-03-25T07:31:36;9.40;99.90
11615;DHT22;5863;52.832;4.758;2024-03-25T07:34:04;9.90;99.90
11615;DHT22;5863;52.832;4.758;2024-03-25T07:36:30;10.50;99.90
11615;DHT22;5863;52.832;4.758;2024-03-25T07:38:56;11.30;99.90
11615;DHT22;5863;52.832;4.758;2024-03-25T07:41:21;12.00;99.90
11615;DHT22;5863;52.832;4.758;2024-03-25T07:43:47;12.60;99.90
11615;DHT22;5863;52.832;4.758;2024-03-25T07:46:13;13.00;99.90
11615;DHT22;5863;52.832;4.758;2024-03-25T07:48:39;13.40;99.90
11615;DHT22;5863;52.832;4.758;2024-03-25T07:51:06;14.00;99.90
11615;DHT22;5863;52.832;4.758;2024-03-25T07:53:32;15.00;99.90
11615;DHT22;5863;52.832;4.758;2024-03-25T07:55:58;15.60;99.90
11615;DHT22;5863;52.832;4.758;2024-03-25T07:58:24;16.20;99.90
11615;DHT22;5863;52.832;4.758;2024-03-25T08:00:50;16.70;99.90
11615;DHT22;5863;52.832;4.758;2024-03-25T08:03:16;17.00;99.90
11615;DHT22;5863;52.832;4.758;2024-03-25T08:05:42;17.10;99.90
11615;DHT22;5863;52.832;4.758;2024-03-25T08:08:09;17.20;99.90
11615;DHT22;5863;52.832;4.758;2024-03-25T08:10:36;17.30;99.90
11615;DHT22;5863;52.832;4.758;2024-03-25T08:13:03;17.20;99.90
11615;DHT22;5863;52.832;4.758;2024-03-25T08:15:29;16.90;99.90
11615;DHT22;5863;52.832;4.758;2024-03-25T08:17:55;16.80;99.90
11615;DHT22;5863;52.832;4.758;2024-03-25T08:20:21;16.50;99.90
11615;DHT22;5863;52.832;4.758;2024-03-25T08:22:48;15.90;99.90
11615;DHT22;5863;52.832;4.758;2024-03-25T08:25:16;15.20;99.90
11615;DHT22;5863;52.832;4.758;2024-03-25T08:27:42;14.60;99.90
11615;DHT22;5863;52.832;4.758;2024-03-25T08:30:09;14.50;99.90
11615;DHT22;5863;52.832;4.758;2024-03-25T08:32:35;14.50;99.90
11615;DHT22;5863;52.832;4.758;2024-03-25T08:35:01;14.10;99.90
11615;DHT22;5863;52.832;4.758;2024-03-25T08:37:27;13.80;99.90
11615;DHT22;5863;52.832;4.758;2024-03-25T08:39:53;13.40;99.90
11615;DHT22;5863;52.832;4.758;2024-03-25T08:42:20;13.10;99.90
11615;DHT22;5863;52.832;4.758;2024-03-25T08:44:46;13.00;99.90
11615;DHT22;5863;52.832;4.758;2024-03-25T08:47:12;13.00;99.90
11615;DHT22;5863;52.832;4.758;2024-03-25T08:49:38;13.00;99.90
11615;DHT22;5863;52.832;4.758;2024-03-25T08:52:04;13.10;99.90
11615;DHT22;5863;52.832;4.758;2024-03-25T08:54:30;12.90;99.90
11615;DHT22;5863;52.832;4.758;2024-03-25T08:56:56;12.90;99.90
11615;DHT22;5863;52.832;4.758;2024-03-25T08:59:23;12.90;99.90
11615;DHT22;5863;52.832;4.758;2024-03-25T09:01:49;12.80;99.90
11615;DHT22;5863;52.832;4.758;2024-03-25T09:04:15;12.70;99.90
11615;DHT22;5863;52.832;4.758;2024-03-25T09:06:41;12.80;99.90
11615;DHT22;5863;52.832;4.758;2024-03-25T09:09:07;13.10;99.90
11615;DHT22;5863;52.832;4.758;2024-03-25T09:11:51;13.10;99.90
11615;DHT22;5863;52.832;4.758;2024-03-25T09:14:17;13.00;99.90
11615;DHT22;5863;52.832;4.758;2024-03-25T09:16:45;12.90;99.90
11615;DHT22;5863;52.832;4.758;2024-03-25T09:19:11;12.80;99.90
11615;DHT22;5863;52.832;4.758;2024-03-25T09:21:37;12.90;99.90
11615;DHT22;5863;52.832;4.758;2024-03-25T09:24:03;13.10;99.90
11615;DHT22;5863;52.832;4.758;2024-03-25T09:26:29;13.10;99.90
11615;DHT22;5863;52.832;4.758;2024-03-25T09:28:55;13.00;99.90
11615;DHT22;5863;52.832;4.758;2024-03-25T09:31:21;13.00;99.90
11615;DHT22;5863;52.832;4.758;2024-03-25T09:33:48;12.80;99.90
11615;DHT22;5863;52.832;4.758;2024-03-25T09:36:14;12.70;99.90
11615;DHT22;5863;52.832;4.758;2024-03-25T09:38:40;12.80;99.90
11615;DHT22;5863;52.832;4.758;2024-03-25T09:41:08;13.00;99.90
11615;DHT22;5863;52.832;4.758;2024-03-25T09:43:44;13.20;99.90
11615;DHT22;5863;52.832;4.758;2024-03-25T09:46:11;13.40;99.90
11615;DHT22;5863;52.832;4.758;2024-03-25T09:48:37;13.50;99.90
11615;DHT22;5863;52.832;4.758;2024-03-25T09:51:05;13.60;99.90
11615;DHT22;5863;52.832;4.758;2024-03-25T09:53:31;13.70;99.90
11615;DHT22;5863;52.832;4.758;2024-03-25T09:55:57;13.80;99.90
11615;DHT22;5863;52.832;4.758;2024-03-25T09:58:25;13.60;99.90
11615;DHT22;5863;52.832;4.758;2024-03-25T10:00:51;13.60;99.90
11615;DHT22;5863;52.832;4.758;2024-03-25T10:03:17;13.50;99.90
11615;DHT22;5863;52.832;4.758;2024-03-25T10:05:43;13.50;99.90
11615;DHT22;5863;52.832;4.758;2024-03-25T10:08:10;13.60;99.90
11615;DHT22;5863;52.832;4.758;2024-03-25T10:10:36;13.90;99.90
11615;DHT22;5863;52.832;4.758;2024-03-25T10:13:03;13.90;99.90
11615;DHT22;5863;52.832;4.758;2024-03-25T10:15:29;14.20;99.90
11615;DHT22;5863;52.832;4.758;2024-03-25T10:17:55;14.20;99.90
11615;DHT22;5863;52.832;4.758;2024-03-25T10:20:21;14.40;99.90
11615;DHT22;5863;52.832;4.758;2024-03-25T10:22:47;14.40;99.90
11615;DHT22;5863;52.832;4.758;2024-03-25T10:25:22;14.50;99.90
11615;DHT22;5863;52.832;4.758;2024-03-25T10:27:55;14.70;99.90
11615;DHT22;5863;52.832;4.758;2024-03-25T10:30:21;14.70;99.90
11615;DHT22;5863;52.832;4.758;2024-03-25T10:32:58;14.60;99.90
11615;DHT22;5863;52.832;4.758;2024-03-25T10:35:26;14.50;99.90
11615;DHT22;5863;52.832;4.758;2024-03-25T10:37:56;14.50;99.90
11615;DHT22;5863;52.832;4.758;2024-03-25T10:40:27;14.40;99.90
11615;DHT22;5863;52.832;4.758;2024-03-25T10:43:00;14.40;99.90
11615;DHT22;5863;52.832;4.758;2024-03-25T10:45:28;14.40;99.90
11615;DHT22;5863;52.832;4.758;2024-03-25T10:47:56;14.50;99.90
11615;DHT22;5863;52.832;4.758;2024-03-25T10:50:26;14.50;99.90
11615;DHT22;5863;52.832;4.758;2024-03-25T10:52:54;14.60;99.90
11615;DHT22;5863;52.832;4.758;2024-03-25T10:55:20;14.60;99.90
11615;DHT22;5863;52.832;4.758;2024-03-25T10:57:48;14.60;99.90
11615;DHT22;5863;52.832;4.758;2024-03-25T11:00:15;14.70;99.90
11615;DHT22;5863;52.832;4.758;2024-03-25T11:02:42;14.90;99.90
11615;DHT22;5863;52.832;4.758;2024-03-25T11:05:09;14.90;99.90
11615;DHT22;5863;52.832;4.758;2024-03-25T11:07:36;14.80;99.90
11615;DHT22;5863;52.832;4.758;2024-03-25T11:10:04;14.70;99.90
11615;DHT22;5863;52.832;4.758;2024-03-25T11:12:35;14.80;99.90
11615;DHT22;5863;52.832;4.758;2024-03-25T11:15:03;14.80;99.90
11615;DHT22;5863;52.832;4.758;2024-03-25T11:17:29;14.70;99.90
11615;DHT22;5863;52.832;4.758;2024-03-25T11:20:06;14.90;99.90
11615;DHT22;5863;52.832;4.758;2024-03-25T11:22:32;15.00;99.90
11615;DHT22;5863;52.832;4.758;2024-03-25T11:25:05;15.00;99.90
11615;DHT22;5863;52.832;4.758;2024-03-25T11:27:33;14.90;99.90
11615;DHT22;5863;52.832;4.758;2024-03-25T11:29:59;14.90;99.90
11615;DHT22;5863;52.832;4.758;2024-03-25T11:32:27;15.20;99.90
11615;DHT22;5863;52.832;4.758;2024-03-25T11:34:53;15.50;99.90
11615;DHT22;5863;52.832;4.758;2024-03-25T11:37:19;15.60;99.90
11615;DHT22;5863;52.832;4.758;2024-03-25T11:39:45;15.80;99.90
11615;DHT22;5863;52.832;4.758;2024-03-25T11:42:12;15.80;99.90
11615;DHT22;5863;52.832;4.758;2024-03-25T11:44:38;15.80;99.90
11615;DHT22;5863;52.832;4.758;2024-03-25T11:47:08;15.70;99.90
11615;DHT22;5863;52.832;4.758;2024-03-25T11:49:38;15.60;99.90
11615;DHT22;5863;52.832;4.758;2024-03-25T11:52:06;15.60;99.90
11615;DHT22;5863;52.832;4.758;2024-03-25T11:54:32;15.80;99.90
11615;DHT22;5863;52.832;4.758;2024-03-25T11:56:58;16.10;99.90
11615;DHT22;5863;52.832;4.758;2024-03-25T11:59:24;16.20;99.90
11615;DHT22;5863;52.832;4.758;2024-03-25T12:01:50;16.20;99.90
11615;DHT22;5863;52.832;4.758;2024-03-25T12:04:17;16.00;99.90
11615;DHT22;5863;52.832;4.758;2024-03-25T12:06:45;15.80;99.90
11615;DHT22;5863;52.832;4.758;2024-03-25T12:09:11;15.80;99.90
11615;DHT22;5863;52.832;4.758;2024-03-25T12:11:56;15.50;99.90
11615;DHT22;5863;52.832;4.758;2024-03-25T12:14:22;15.80;99.90
11615;DHT22;5863;52.832;4.758;2024-03-25T12:16:49;15.90;99.90
11615;DHT22;5863;52.832;4.758;2024-03-25T12:19:15;15.90;99.90
11615;DHT22;5863;52.832;4.758;2024-03-25T12:21:41;15.80;99.90
11615;DHT22;5863;52.832;4.758;2024-03-25T12:24:09;15.50;99.60
11615;DHT22;5863;52.832;4.758;2024-03-25T12:26:35;15.40;99.20
11615;DHT22;5863;52.832;4.758;2024-03-25T12:29:01;15.40;98.90
11615;DHT22;5863;52.832;4.758;2024-03-25T12:31:26;15.60;99.10
11615;DHT22;5863;52.832;4.758;2024-03-25T12:33:52;15.90;99.90
11615;DHT22;5863;52.832;4.758;2024-03-25T12:36:20;16.00;99.90
11615;DHT22;5863;52.832;4.758;2024-03-25T12:38:54;16.10;99.80
11615;DHT22;5863;52.832;4.758;2024-03-25T12:41:22;16.00;99.70
11615;DHT22;5863;52.832;4.758;2024-03-25T12:43:50;16.10;99.90
11615;DHT22;5863;52.832;4.758;2024-03-25T12:46:17;16.20;99.90
11615;DHT22;5863;52.832;4.758;2024-03-25T12:48:43;15.90;99.40
11615;DHT22;5863;52.832;4.758;2024-03-25T12:51:13;15.60;99.40
11615;DHT22;5863;52.832;4.758;2024-03-25T12:53:39;15.40;99.80
11615;DHT22;5863;52.832;4.758;2024-03-25T12:56:05;15.30;99.90
11615;DHT22;5863;52.832;4.758;2024-03-25T12:58:32;15.50;99.90
11615;DHT22;5863;52.832;4.758;2024-03-25T13:00:58;15.60;99.90
11615;DHT22;5863;52.832;4.758;2024-03-25T13:03:24;15.70;99.90
11615;DHT22;5863;52.832;4.758;2024-03-25T13:05:50;15.60;98.90
11615;DHT22;5863;52.832;4.758;2024-03-25T13:08:16;15.50;98.90
11615;DHT22;5863;52.832;4.758;2024-03-25T13:10:43;15.50;99.70
11615;DHT22;5863;52.832;4.758;2024-03-25T13:13:09;15.40;99.90
11615;DHT22;5863;52.832;4.758;2024-03-25T13:15:36;15.30;99.90
11615;DHT22;5863;52.832;4.758;2024-03-25T13:18:02;15.20;99.90
11615;DHT22;5863;52.832;4.758;2024-03-25T13:20:28;15.00;99.90
11615;DHT22;5863;52.832;4.758;2024-03-25T13:22:55;14.90;99.90
11615;DHT22;5863;52.832;4.758;2024-03-25T13:25:21;14.60;99.90
11615;DHT22;5863;52.832;4.758;2024-03-25T13:27:47;14.50;99.90
11615;DHT22;5863;52.832;4.758;2024-03-25T13:30:13;14.40;99.90
11615;DHT22;5863;52.832;4.758;2024-03-25T13:32:40;14.20;99.90
11615;DHT22;5863;52.832;4.758;2024-03-25T13:35:06;14.10;99.90
11615;DHT22;5863;52.832;4.758;2024-03-25T13:37:32;13.90;99.90
11615;DHT22;5863;52.832;4.758;2024-03-25T13:39:58;14.00;99.90
11615;DHT22;5863;52.832;4.758;2024-03-25T13:42:24;13.80;99.90
11615;DHT22;5863;52.832;4.758;2024-03-25T13:44:50;13.60;99.90
11615;DHT22;5863;52.832;4.758;2024-03-25T13:47:16;13.60;99.90
11615;DHT22;5863;52.832;4.758;2024-03-25T13:49:43;13.40;99.90
11615;DHT22;5863;52.832;4.758;2024-03-25T13:52:09;13.30;99.90
11615;DHT22;5863;52.832;4.758;2024-03-25T13:54:35;13.20;99.90
11615;DHT22;5863;52.832;4.758;2024-03-25T13:57:01;13.10;99.90
11615;DHT22;5863;52.832;4.758;2024-03-25T13:59:27;13.00;99.90
11615;DHT22;5863;52.832;4.758;2024-03-25T14:01:53;12.90;99.90
11615;DHT22;5863;52.832;4.758;2024-03-25T14:04:19;12.90;99.90
11615;DHT22;5863;52.832;4.758;2024-03-25T14:06:47;12.80;99.90
11615;DHT22;5863;52.832;4.758;2024-03-25T14:09:23;12.90;99.90
11615;DHT22;5863;52.832;4.758;2024-03-25T14:11:50;12.80;99.90
11615;DHT22;5863;52.832;4.758;2024-03-25T14:14:15;12.60;99.90
11615;DHT22;5863;52.832;4.758;2024-03-25T14:16:41;12.60;99.90
11615;DHT22;5863;52.832;4.758;2024-03-25T14:19:07;12.60;99.90
11615;DHT22;5863;52.832;4.758;2024-03-25T14:21:33;12.60;99.90
11615;DHT22;5863;52.832;4.758;2024-03-25T14:24:01;12.40;99.90
11615;DHT22;5863;52.832;4.758;2024-03-25T14:26:27;12.30;99.90
11615;DHT22;5863;52.832;4.758;2024-03-25T14:28:53;12.30;99.90
11615;DHT22;5863;52.832;4.758;2024-03-25T14:31:18;12.30;99.90
11615;DHT22;5863;52.832;4.758;2024-03-25T14:33:44;12.40;99.90
11615;DHT22;5863;52.832;4.758;2024-03-25T14:36:10;12.30;99.90
11615;DHT22;5863;52.832;4.758;2024-03-25T14:38:36;12.20;99.90
11615;DHT22;5863;52.832;4.758;2024-03-25T14:41:04;12.30;99.90
11615;DHT22;5863;52.832;4.758;2024-03-25T14:43:30;12.30;99.90
11615;DHT22;5863;52.832;4.758;2024-03-25T14:45:56;12.20;99.90
11615;DHT22;5863;52.832;4.758;2024-03-25T14:48:22;12.30;99.90
11615;DHT22;5863;52.832;4.758;2024-03-25T14:50:48;12.40;99.90
11615;DHT22;5863;52.832;4.758;2024-03-25T14:53:14;12.50;99.90
11615;DHT22;5863;52.832;4.758;2024-03-25T14:55:41;12.40;99.90
11615;DHT22;5863;52.832;4.758;2024-03-25T14:58:08;12.50;99.90
11615;DHT22;5863;52.832;4.758;2024-03-25T15:00:34;12.60;99.90
11615;DHT22;5863;52.832;4.758;2024-03-25T15:03:00;12.50;99.90
11615;DHT22;5863;52.832;4.758;2024-03-25T15:05:26;12.60;99.90
11615;DHT22;5863;52.832;4.758;2024-03-25T15:07:52;12.50;99.90
11615;DHT22;5863;52.832;4.758;2024-03-25T15:10:18;12.40;99.90
11615;DHT22;5863;52.832;4.758;2024-03-25T15:12:46;12.50;99.90
11615;DHT22;5863;52.832;4.758;2024-03-25T15:15:13;12.50;99.90
11615;DHT22;5863;52.832;4.758;2024-03-25T15:17:39;12.60;99.90
11615;DHT22;5863;52.832;4.758;2024-03-25T15:20:06;12.60;99.90
11615;DHT22;5863;52.832;4.758;2024-03-25T15:22:32;12.60;99.90
11615;DHT22;5863;52.832;4.758;2024-03-25T15:24:58;12.70;99.90
11615;DHT22;5863;52.832;4.758;2024-03-25T15:27:24;12.70;99.90
11615;DHT22;5863;52.832;4.758;2024-03-25T15:29:50;12.70;99.90
11615;DHT22;5863;52.832;4.758;2024-03-25T15:32:17;12.60;99.90
11615;DHT22;5863;52.832;4.758;2024-03-25T15:34:43;12.60;99.90
11615;DHT22;5863;52.832;4.758;2024-03-25T15:37:09;12.50;99.90
11615;DHT22;5863;52.832;4.758;2024-03-25T15:39:35;12.40;99.90
11615;DHT22;5863;52.832;4.758;2024-03-25T15:42:01;12.40;99.90
11615;DHT22;5863;52.832;4.758;2024-03-25T15:44:27;12.50;99.90
11615;DHT22;5863;52.832;4.758;2024-03-25T15:46:53;12.50;99.90
11615;DHT22;5863;52.832;4.758;2024-03-25T15:49:20;12.50;99.90